.
WxDataArchive / Data Records for 2013-12-28
2013-12-27 December 2013 2013-12-29

Data Records for Saturday, 28 December 2013

Time	Temp	Chill	HIndex	Humid	Dewpt	 Wind 	HiWind	WindDir	Rain 	Barom 
-----	----	-----	------	-----	-----	------	------	-------	-----	----- 
00:00	37.3	37.3	37.3	76	30.4	2	8	248	0.00	30.152 
00:05	37.5	37.5	37.5	76	30.6	2	5	248	0.00	30.152 
00:10	37.5	37.5	37.5	76	30.6	1	6	248	0.00	30.152 
00:15	37.5	37.5	37.5	76	30.6	2	9	248	0.00	30.141 
00:20	37.5	37.5	37.5	76	30.6	2	10	248	0.00	30.141 
00:25	37.5	37.5	37.5	76	30.6	1	7	248	0.00	30.141 
00:30	37.5	37.5	37.5	76	30.6	1	4	248	0.00	30.142 
00:35	37.5	37.5	37.5	76	30.6	2	5	248	0.00	30.142 
00:40	37.5	37.5	37.5	76	30.6	1	3	248	0.00	30.142 
00:45	37.3	37.3	37.3	77	30.8	2	6	248	0.00	30.141 
00:50	37.5	37.5	37.5	76	30.6	1	4	248	0.00	30.141 
00:55	37.5	37.5	37.5	77	31.0	1	6	248	0.00	30.141 
01:00	37.6	37.6	37.6	76	30.7	2	5	225	0.00	30.134 
01:05	37.8	37.8	37.8	76	30.9	2	6	248	0.00	30.134 
01:10	37.9	37.9	37.9	75	30.7	2	7	248	0.00	30.134 
01:15	38.0	38.0	38.0	75	30.8	2	5	248	0.00	30.122 
01:20	38.0	38.0	38.0	75	30.8	2	6	248	0.00	30.122 
01:25	38.0	38.0	38.0	75	30.8	2	5	248	0.00	30.122 
01:30	38.0	38.0	38.0	75	30.8	1	5	248	0.00	30.122 
01:35	38.0	38.0	38.0	75	30.8	1	5	248	0.00	30.122 
01:40	38.0	38.0	38.0	75	30.8	2	6	248	0.00	30.122 
01:45	38.0	38.0	38.0	75	30.8	2	5	248	0.00	30.120 
01:50	38.0	38.0	38.0	75	30.8	2	7	248	0.00	30.120 
01:55	38.0	38.0	38.0	75	30.8	1	5	248	0.00	30.120 
02:00	37.9	37.9	37.9	75	30.7	2	6	248	0.00	30.118 
02:05	37.9	37.9	37.9	75	30.7	1	4	248	0.00	30.118 
02:10	37.8	37.8	37.8	75	30.6	1	4	248	0.00	30.118 
02:15	37.8	37.8	37.8	75	30.6	1	4	248	0.00	30.119 
02:20	37.6	37.6	37.6	75	30.4	1	4	248	0.00	30.119 
02:25	37.6	37.6	37.6	75	30.4	2	4	248	0.00	30.119 
02:30	37.6	37.6	37.6	75	30.4	1	4	248	0.00	30.118 
02:35	37.5	37.5	37.5	75	30.3	1	4	248	0.00	30.118 
02:40	37.5	37.5	37.5	75	30.3	1	4	248	0.00	30.118 
02:45	37.5	37.5	37.5	75	30.3	1	5	248	0.00	30.113 
02:50	37.5	37.5	37.5	75	30.3	0	2	225	0.00	30.113 
02:55	37.3	37.3	37.3	75	30.1	1	3	225	0.00	30.113 
03:00	37.3	37.3	37.3	75	30.1	1	6	248	0.00	30.114 
03:05	37.5	37.5	37.5	75	30.3	1	5	248	0.00	30.114 
03:10	37.5	37.5	37.5	74	30.0	1	4	248	0.00	30.114 
03:15	37.5	37.5	37.5	74	30.0	1	3	248	0.00	30.115 
03:20	37.5	37.5	37.5	74	30.0	0	2	248	0.00	30.115 
03:25	37.3	37.3	37.3	74	29.8	1	4	248	0.00	30.115 
03:30	37.2	37.2	37.2	74	29.7	0	2	248	0.00	30.113 
03:35	37.2	37.2	37.2	74	29.7	1	3	248	0.00	30.113 
03:40	37.2	37.2	37.2	74	29.7	1	4	248	0.00	30.113 
03:45	37.3	37.3	37.3	74	29.8	1	4	248	0.00	30.110 
03:50	37.3	37.3	37.3	74	29.8	1	4	248	0.00	30.110 
03:55	37.5	37.5	37.5	74	30.0	1	3	248	0.00	30.110 
04:00	37.5	37.5	37.5	73	29.6	1	4	248	0.00	30.110 
04:05	37.6	37.6	37.6	73	29.7	1	4	248	0.00	30.110 
04:10	37.6	37.6	37.6	73	29.7	1	4	248	0.00	30.110 
04:15	37.8	37.8	37.8	73	29.9	1	3	248	0.00	30.111 
04:20	37.9	37.9	37.9	72	29.7	1	7	270	0.00	30.111 
04:25	38.0	38.0	38.0	72	29.8	1	4	270	0.00	30.111 
04:30	38.0	38.0	38.0	72	29.8	1	5	270	0.00	30.110 
04:35	38.2	38.2	38.2	71	29.6	1	5	248	0.00	30.110 
04:40	38.3	38.3	38.3	71	29.7	2	6	248	0.00	30.110 
04:45	38.3	38.3	38.3	71	29.7	1	3	270	0.00	30.115 
04:50	38.2	38.2	38.2	71	29.6	1	5	248	0.00	30.115 
04:55	38.2	38.2	38.2	72	30.0	2	7	248	0.00	30.115 
05:00	38.2	38.2	38.2	71	29.6	1	5	248	0.00	30.109 
05:05	38.0	38.0	38.0	71	29.4	1	4	248	0.00	30.109 
05:10	37.8	37.8	37.8	72	29.6	1	5	248	0.00	30.109 
05:15	37.8	37.8	37.8	72	29.6	2	9	248	0.00	30.108 
05:20	37.6	37.6	37.6	73	29.7	1	4	248	0.00	30.108 
05:25	37.6	37.6	37.6	73	29.7	1	4	248	0.00	30.108 
05:30	37.5	37.5	37.5	73	29.6	1	4	248	0.00	30.112 
05:35	37.5	37.5	37.5	73	29.6	2	5	248	0.00	30.112 
05:40	37.5	37.5	37.5	73	29.6	2	6	248	0.00	30.112 
05:45	37.6	37.6	37.6	73	29.7	2	5	248	0.00	30.122 
05:50	37.6	37.6	37.6	73	29.7	2	6	248	0.00	30.122 
05:55	37.6	37.6	37.6	73	29.7	1	4	248	0.00	30.122 
06:00	37.6	37.6	37.6	73	29.7	1	4	248	0.00	30.132 
06:05	37.6	37.6	37.6	74	30.1	2	7	248	0.00	30.132 
06:10	37.6	37.6	37.6	74	30.1	2	7	248	0.00	30.132 
06:15	37.6	37.6	37.6	73	29.7	2	5	248	0.00	30.138 
06:20	37.5	37.5	37.5	74	30.0	1	4	270	0.00	30.138 
06:25	37.5	37.5	37.5	74	30.0	2	5	248	0.00	30.138 
06:30	37.5	37.5	37.5	74	30.0	1	5	248	0.00	30.143 
06:35	37.5	37.5	37.5	74	30.0	1	4	248	0.00	30.143 
06:40	37.3	37.3	37.3	74	29.8	1	3	248	0.00	30.143 
06:45	37.2	37.2	37.2	75	30.0	1	5	248	0.00	30.142 
06:50	37.2	37.2	37.2	75	30.0	1	4	248	0.00	30.142 
06:55	37.2	37.2	37.2	75	30.0	1	4	248	0.00	30.142 
07:00	37.2	37.2	37.2	75	30.0	1	4	248	0.00	30.143 
07:05	37.0	37.0	37.0	75	29.8	1	3	248	0.00	30.143 
07:10	37.2	37.2	37.2	75	30.0	2	7	248	0.00	30.143 
07:15	37.2	37.2	37.2	75	30.0	1	5	248	0.00	30.151 
07:20	37.2	37.2	37.2	75	30.0	1	4	248	0.00	30.151 
07:25	37.0	37.0	37.0	75	29.8	1	4	248	0.00	30.151 
07:30	37.0	37.0	37.0	75	29.8	2	5	248	0.00	30.152 
07:35	37.0	37.0	37.0	75	29.8	1	3	248	0.00	30.152 
07:40	36.9	36.9	36.9	76	30.1	1	4	248	0.00	30.152 
07:45	36.9	36.9	36.9	76	30.1	1	3	248	0.00	30.149 
07:50	36.8	36.8	36.8	76	30.0	1	4	248	0.00	30.149 
07:55	36.8	36.8	36.8	76	30.0	1	3	248	0.00	30.149 
08:00	36.6	36.6	36.6	76	29.8	1	5	248	0.00	30.150 
08:05	36.6	36.6	36.6	76	29.8	1	5	248	0.00	30.150 
08:10	36.5	36.5	36.5	77	30.0	1	3	248	0.00	30.150 
08:15	36.5	36.5	36.5	77	30.0	1	4	248	0.00	30.149 
08:20	36.3	36.3	36.3	77	29.8	1	4	248	0.00	30.149 
08:25	36.3	36.3	36.3	77	29.8	0	3	270	0.00	30.149 
08:30	36.3	36.3	36.3	77	29.8	0	2	270	0.00	30.148 
08:35	36.3	36.3	36.3	77	29.8	1	3	270	0.00	30.148 
08:40	36.3	36.3	36.3	77	29.8	1	3	270	0.00	30.148 
08:45	36.5	36.5	36.5	77	30.0	0	2	270	0.00	30.144 
08:50	36.6	36.6	36.6	77	30.1	1	5	248	0.00	30.144 
08:55	36.6	36.6	36.6	77	30.1	0	3	248	0.00	30.144 
09:00	36.8	36.8	36.8	77	30.3	1	3	248	0.00	30.142 
09:05	36.9	36.9	36.9	77	30.4	1	4	248	0.00	30.142 
09:10	37.2	37.2	37.2	76	30.3	1	3	248	0.00	30.142 
09:15	37.3	37.3	37.3	76	30.4	1	4	248	0.00	30.143 
09:20	37.6	37.6	37.6	75	30.4	1	4	248	0.00	30.143 
09:25	37.8	37.8	37.8	75	30.6	1	4	248	0.00	30.143 
09:30	38.0	38.0	38.0	74	30.5	1	3	248	0.00	30.148 
09:35	38.2	38.2	38.2	73	30.3	1	4	248	0.00	30.148 
09:40	38.5	38.5	38.5	73	30.6	1	4	248	0.00	30.148 
09:45	38.6	38.6	38.6	73	30.7	1	3	248	0.00	30.147 
09:50	38.9	38.9	38.9	72	30.7	1	4	248	0.00	30.147 
09:55	39.2	39.2	39.2	72	30.9	1	4	248	0.00	30.147 
10:00	39.3	39.3	39.3	71	30.7	1	4	248	0.00	30.145 
10:05	39.6	39.6	39.6	70	30.6	1	4	248	0.00	30.145 
10:10	39.8	39.8	39.8	70	30.8	1	8	248	0.00	30.145 
10:15	40.1	40.1	40.1	69	30.8	1	3	270	0.00	30.145 
10:20	40.3	40.3	40.3	69	31.0	1	4	270	0.00	30.145 
10:25	40.6	40.6	40.6	69	31.2	1	6	248	0.00	30.145 
10:30	40.9	40.9	40.9	69	31.5	1	4	248	0.00	30.140 
10:35	41.1	41.1	41.1	67	31.0	2	5	248	0.00	30.140 
10:40	41.2	41.2	41.2	67	31.1	2	5	248	0.00	30.140 
10:45	41.3	41.3	41.3	67	31.2	1	4	248	0.00	30.145 
10:50	41.6	41.6	41.6	66	31.1	2	5	248	0.00	30.145 
10:55	41.9	41.9	41.9	66	31.4	1	6	248	0.00	30.145 
11:00	42.2	42.2	42.2	66	31.7	1	4	248	0.00	30.137 
11:05	42.3	42.3	42.3	65	31.4	1	5	248	0.00	30.137 
11:10	42.5	42.5	42.5	65	31.6	1	3	248	0.00	30.137 
11:15	42.8	42.8	42.8	65	31.9	1	4	248	0.00	30.132 
11:20	43.1	43.1	43.1	65	32.1	1	4	248	0.00	30.132 
11:25	43.3	43.3	43.3	64	32.0	1	4	248	0.00	30.132 
11:30	43.5	43.5	43.5	64	32.1	1	4	248	0.00	30.130 
11:35	43.8	43.8	43.8	63	32.0	1	4	248	0.00	30.130 
11:40	43.9	43.9	43.9	62	31.7	1	5	248	0.00	30.130 
11:45	43.9	43.9	43.9	62	31.7	1	5	270	0.00	30.121 
11:50	44.1	44.1	44.1	62	31.9	1	6	248	0.00	30.121 
11:55	44.2	44.2	44.2	63	32.4	1	6	248	0.00	30.121 
12:00	44.5	44.5	44.5	62	32.3	1	5	248	0.00	30.114 
12:05	44.5	44.5	44.5	62	32.3	2	6	248	0.00	30.114 
12:10	44.8	44.8	44.8	62	32.6	1	3	270	0.00	30.114 
12:15	44.9	44.9	44.9	61	32.3	2	6	248	0.00	30.103 
12:20	45.1	45.1	45.1	61	32.5	2	6	248	0.00	30.103 
12:25	45.2	45.2	45.2	61	32.6	1	5	248	0.00	30.103 
12:30	45.4	45.4	45.4	61	32.7	1	4	248	0.00	30.092 
12:35	45.7	45.7	45.7	60	32.6	1	5	248	0.00	30.092 
12:40	45.8	45.8	45.8	59	32.3	1	5	248	0.00	30.092 
12:45	46.0	46.0	46.0	59	32.5	2	6	248	0.00	30.082 
12:50	46.1	46.1	46.1	59	32.6	1	4	248	0.00	30.082 
12:55	46.4	46.4	46.4	58	32.4	1	4	248	0.00	30.082 
13:00	46.5	46.5	46.5	58	32.5	1	5	248	0.00	30.073 
13:05	47.0	47.0	47.0	58	33.0	0	2	248	0.00	30.073 
13:10	47.3	47.3	47.3	58	33.3	0	4	270	0.00	30.073 
13:15	47.6	47.6	47.6	56	32.7	1	4	248	0.00	30.066 
13:20	47.7	47.7	47.7	56	32.8	1	5	248	0.00	30.066 
13:25	47.7	47.7	47.7	55	32.3	1	6	248	0.00	30.066 
13:30	47.9	47.9	47.9	56	33.0	1	4	248	0.00	30.050 
13:35	48.0	48.0	48.0	56	33.1	0	4	248	0.00	30.050 
13:40	48.3	48.3	48.3	56	33.3	0	3	248	0.00	30.050 
13:45	48.3	48.3	48.3	54	32.4	1	6	248	0.00	30.047 
13:50	48.5	48.5	48.5	53	32.2	1	6	248	0.00	30.047 
13:55	48.6	48.6	48.6	54	32.7	1	5	270	0.00	30.047 
14:00	48.8	48.8	48.8	54	32.9	1	4	248	0.00	30.045 
14:05	48.8	48.8	48.8	54	32.9	1	4	248	0.00	30.045 
14:10	48.5	48.5	48.5	56	33.5	1	6	248	0.00	30.045 
14:15	48.0	48.0	48.0	57	33.5	1	3	270	0.00	30.049 
14:20	47.7	47.7	47.7	57	33.2	1	3	248	0.00	30.049 
14:25	47.9	47.9	47.9	56	33.0	1	5	248	0.00	30.049 
14:30	48.0	48.0	48.0	57	33.5	1	3	248	0.00	30.056 
14:35	48.2	48.2	48.2	57	33.7	1	11	248	0.00	30.056 
14:40	48.2	48.2	48.2	57	33.7	2	7	248	0.00	30.056 
14:45	48.3	48.3	48.3	56	33.3	2	6	248	0.00	30.051 
14:50	48.6	48.6	48.6	56	33.6	1	5	248	0.00	30.051 
14:55	48.9	48.9	48.9	55	33.5	1	4	248	0.00	30.051 
15:00	48.9	48.9	48.9	54	33.0	2	6	248	0.00	30.053 
15:05	48.9	48.9	48.9	55	33.5	1	3	248	0.00	30.053 
15:10	48.9	48.9	48.9	55	33.5	1	5	248	0.00	30.053 
15:15	48.9	48.9	48.9	55	33.5	1	6	248	0.00	30.050 
15:20	48.9	48.9	48.9	55	33.5	1	5	248	0.00	30.050 
15:25	49.1	49.1	49.1	55	33.6	1	5	270	0.00	30.050 
15:30	49.2	49.2	49.2	55	33.7	1	5	248	0.00	30.039 
15:35	49.4	49.4	49.4	54	33.5	2	9	248	0.00	30.039 
15:40	49.2	49.2	49.2	55	33.7	1	4	248	0.00	30.039 
15:45	49.2	49.2	49.2	55	33.7	1	4	248	0.00	30.041 
15:50	49.2	49.2	49.2	55	33.7	1	5	248	0.00	30.041 
15:55	49.2	49.2	49.2	55	33.7	1	3	248	0.00	30.041 
16:00	49.1	49.1	49.1	55	33.6	1	4	248	0.00	30.035 
16:05	48.9	48.9	48.9	55	33.5	0	1	248	0.00	30.035 
16:10	48.9	48.9	48.9	55	33.5	1	7	248	0.00	30.035 
16:15	48.8	48.8	48.8	56	33.8	1	7	248	0.00	30.039 
16:20	48.6	48.6	48.6	56	33.6	1	4	248	0.00	30.039 
16:25	48.5	48.5	48.5	57	34.0	2	6	248	0.00	30.039 
16:30	48.3	48.3	48.3	57	33.8	1	3	270	0.00	30.034 
16:35	48.2	48.2	48.2	57	33.7	1	4	270	0.00	30.034 
16:40	47.9	47.9	47.9	58	33.8	0	1	248	0.00	30.034 
16:45	47.6	47.6	47.6	58	33.6	0	2	248	0.00	30.034 
16:50	47.4	47.4	47.4	59	33.8	0	2	248	0.00	30.034 
16:55	47.1	47.1	47.1	59	33.5	0	2	248	0.00	30.034 
17:00	46.8	46.8	46.8	60	33.7	0	2	248	0.00	30.027 
17:05	46.5	46.5	46.5	61	33.8	0	2	248	0.00	30.027 
17:10	46.4	46.4	46.4	61	33.7	0	4	248	0.00	30.027 
17:15	46.2	46.2	46.2	62	33.9	0	2	248	0.00	30.035 
17:20	45.8	45.8	45.8	62	33.5	0	2	248	0.00	30.035 
17:25	45.7	45.7	45.7	63	33.8	0	2	248	0.00	30.035 
17:30	45.2	45.2	45.2	63	33.4	0	1	248	0.00	30.037 
17:35	44.9	44.9	44.9	64	33.5	0	2	248	0.00	30.037 
17:40	44.6	44.6	44.6	64	33.2	0	2	248	0.00	30.037 
17:45	44.3	44.3	44.3	65	33.3	0	1	248	0.00	30.029 
17:50	44.1	44.1	44.1	65	33.1	0	1	248	0.00	30.029 
17:55	43.8	43.8	43.8	66	33.2	0	1	248	0.00	30.029 
18:00	43.5	43.5	43.5	66	32.9	0	0	---	0.00	30.026 
18:05	43.2	43.2	43.2	67	33.0	0	1	248	0.00	30.026 
18:10	42.9	42.9	42.9	68	33.1	0	1	248	0.00	30.026 
18:15	42.8	42.8	42.8	68	33.0	0	3	248	0.00	30.039 
18:20	42.6	42.6	42.6	69	33.2	0	2	248	0.00	30.039 
18:25	42.5	42.5	42.5	69	33.1	0	1	248	0.00	30.039 
18:30	42.3	42.3	42.3	69	32.9	0	1	248	0.00	30.039 
18:35	42.2	42.2	42.2	70	33.1	0	1	248	0.00	30.039 
18:40	41.9	41.9	41.9	70	32.8	0	1	248	0.00	30.039 
18:45	41.8	41.8	41.8	70	32.7	0	2	248	0.00	30.035 
18:50	41.8	41.8	41.8	70	32.7	0	2	248	0.00	30.035 
18:55	41.6	41.6	41.6	70	32.6	0	1	248	0.00	30.035 
19:00	41.3	41.3	41.3	71	32.6	0	2	248	0.00	30.027 
19:05	41.2	41.2	41.2	71	32.5	0	1	248	0.00	30.027 
19:10	40.9	40.9	40.9	71	32.2	0	1	248	0.00	30.027 
19:15	40.8	40.8	40.8	72	32.5	0	0	---	0.00	30.026 
19:20	40.6	40.6	40.6	72	32.3	0	1	248	0.00	30.026 
19:25	40.5	40.5	40.5	73	32.5	0	2	248	0.00	30.026 
19:30	40.3	40.3	40.3	73	32.3	0	1	248	0.00	30.027 
19:35	40.3	40.3	40.3	73	32.3	0	4	248	0.00	30.027 
19:40	40.5	40.5	40.5	73	32.5	0	2	45	0.00	30.027 
19:45	40.5	40.5	40.5	72	32.2	0	3	270	0.00	30.020 
19:50	40.5	40.5	40.5	72	32.2	0	2	270	0.00	30.020 
19:55	40.5	40.5	40.5	72	32.2	0	2	270	0.00	30.020 
20:00	40.3	40.3	40.3	73	32.3	0	4	68	0.00	30.024 
20:05	40.3	40.3	40.3	73	32.3	0	2	68	0.00	30.024 
20:10	40.5	40.5	40.5	72	32.2	0	3	248	0.00	30.024 
20:15	40.5	40.5	40.5	72	32.2	0	2	248	0.00	30.005 
20:20	40.3	40.3	40.3	72	32.0	0	2	248	0.00	30.005 
20:25	40.3	40.3	40.3	72	32.0	0	2	248	0.00	30.005 
20:30	40.3	40.3	40.3	71	31.7	0	1	248	0.00	30.003 
20:35	40.3	40.3	40.3	71	31.7	1	5	248	0.00	30.003 
20:40	40.5	40.5	40.5	70	31.5	1	4	248	0.00	30.003 
20:45	40.5	40.5	40.5	70	31.5	1	3	248	0.00	30.000 
20:50	40.5	40.5	40.5	70	31.5	1	4	248	0.00	30.000 
20:55	40.5	40.5	40.5	69	31.1	0	3	248	0.00	30.000 
21:00	40.5	40.5	40.5	69	31.1	0	2	248	0.00	29.995 
21:05	40.5	40.5	40.5	69	31.1	0	3	248	0.00	29.995 
21:10	40.5	40.5	40.5	68	30.8	0	3	248	0.00	29.995 
21:15	40.5	40.5	40.5	68	30.8	0	3	248	0.00	29.985 
21:20	40.3	40.3	40.3	68	30.6	0	3	248	0.00	29.985 
21:25	40.3	40.3	40.3	68	30.6	0	3	248	0.00	29.985 
21:30	40.3	40.3	40.3	68	30.6	0	3	248	0.00	29.984 
21:35	40.2	40.2	40.2	68	30.5	0	4	248	0.00	29.984 
21:40	40.2	40.2	40.2	68	30.5	0	3	248	0.00	29.984 
21:45	40.1	40.1	40.1	68	30.4	0	1	248	0.00	29.974 
21:50	40.1	40.1	40.1	67	30.0	0	3	248	0.00	29.974 
21:55	40.2	40.2	40.2	67	30.1	1	5	248	0.00	29.974 
22:00	40.3	40.3	40.3	66	29.9	0	2	248	0.00	29.966 
22:05	40.3	40.3	40.3	66	29.9	0	3	248	0.00	29.966 
22:10	40.3	40.3	40.3	66	29.9	0	3	248	0.00	29.966 
22:15	40.3	40.3	40.3	66	29.9	0	2	248	0.00	29.959 
22:20	40.2	40.2	40.2	66	29.8	0	2	248	0.00	29.959 
22:25	40.2	40.2	40.2	65	29.4	1	3	248	0.00	29.959 
22:30	40.2	40.2	40.2	65	29.4	1	3	248	0.00	29.947 
22:35	40.2	40.2	40.2	65	29.4	0	2	248	0.00	29.947 
22:40	40.1	40.1	40.1	65	29.3	0	1	248	0.00	29.947 
22:45	39.9	39.9	39.9	65	29.1	0	2	248	0.00	29.943 
22:50	39.9	39.9	39.9	65	29.1	0	3	248	0.00	29.943 
22:55	39.8	39.8	39.8	65	29.0	0	2	248	0.00	29.943 
23:00	39.8	39.8	39.8	65	29.0	0	2	248	0.00	29.944 
23:05	39.6	39.6	39.6	66	29.2	0	2	248	0.00	29.944 
23:10	39.6	39.6	39.6	66	29.2	0	3	248	0.00	29.944 
23:15	39.8	39.8	39.8	66	29.4	0	2	248	0.00	29.940 
23:20	39.9	39.9	39.9	65	29.1	0	2	248	0.00	29.940 
23:25	39.9	39.9	39.9	65	29.1	0	2	248	0.00	29.940 
23:30	40.1	40.1	40.1	65	29.3	1	3	248	0.00	29.930 
23:35	40.2	40.2	40.2	64	29.0	0	3	248	0.00	29.930 
23:40	40.2	40.2	40.2	64	29.0	0	3	248	0.00	29.930 
23:45	40.3	40.3	40.3	64	29.1	1	3	248	0.00	29.922 
23:50	40.3	40.3	40.3	63	28.7	1	3	248	0.00	29.922 
23:55	40.3	40.3	40.3	63	28.7	0	3	248	0.00	29.922 

CoCoRaHS
IN-AL-39
A2 Web Hosting
Creative Commons License
GoDaddy
search engine by freefind advanced

loaded 2018-11-17 06:44:50 • last modified 2010-11-18 10:43:29
Privacy PolicyDisclaimer
• wx.awcolley.com is powered by PmWiki v.2002016 •
• all content (unless otherwise noted) © 2018 A W Colley